Time;durP1;ratioP1;P1;durP2;ratioP2;P2;SDS_P1;SDS_P2;PMS_P1;PMS_P2;Temp;Humidity;BMP_temperature;BMP_pressure;BME280_temperature;BME280_humidity;BME280_pressure;Samples;Min_cycle;Max_cycle;Signal;HPM_P1;HPM_P2
2022/07/26 00:01:37;;;;;;;15.90;2.90;;;;;;;-145.18;100.00;46660.41;4990970;28;20511;-78
2022/07/26 00:04:03;;;;;;;13.97;3.20;;;;;;;-145.18;100.00;46660.41;4991105;28;20130;-77
2022/07/26 00:06:28;;;;;;;12.73;2.97;;;;;;;-145.18;100.00;46660.41;4990621;28;20506;-78
2022/07/26 00:08:54;;;;;;;18.03;3.27;;;;;;;-145.18;100.00;46660.41;4991325;28;20035;-78
2022/07/26 00:11:20;;;;;;;15.17;2.97;;;;;;;-145.18;100.00;46660.41;4990566;28;20045;-77
2022/07/26 00:13:46;;;;;;;21.83;4.80;;;;;;;-145.18;100.00;46660.41;4990392;28;20039;-77
2022/07/26 00:16:11;;;;;;;23.07;4.30;;;;;;;-145.18;100.00;46660.41;4990537;28;20046;-77
2022/07/26 00:18:37;;;;;;;19.03;3.30;;;;;;;-145.18;100.00;46660.41;4990772;28;20118;-78
2022/07/26 00:21:02;;;;;;;22.60;3.80;;;;;;;-145.18;100.00;46660.41;4991000;28;20403;-76
2022/07/26 00:23:28;;;;;;;15.70;3.33;;;;;;;-145.18;100.00;46660.41;4990372;28;20403;-76
2022/07/26 00:25:53;;;;;;;19.50;3.30;;;;;;;-145.18;100.00;46660.41;4991007;28;20096;-77
2022/07/26 00:28:19;;;;;;;17.33;3.27;;;;;;;-145.18;100.00;46660.41;4990521;28;20436;-76
2022/07/26 00:30:45;;;;;;;20.30;3.83;;;;;;;-145.18;100.00;46660.41;4990298;28;20038;-77
2022/07/26 00:33:10;;;;;;;18.23;3.60;;;;;;;-145.18;100.00;46660.41;4990651;28;20056;-77
2022/07/26 00:35:36;;;;;;;19.63;3.53;;;;;;;-145.18;100.00;46660.41;4990587;28;20390;-77
2022/07/26 00:38:01;;;;;;;14.87;3.47;;;;;;;-145.18;100.00;46660.41;4973261;28;20450;-79
2022/07/26 00:40:27;;;;;;;22.97;4.27;;;;;;;-145.18;100.00;46660.41;4990351;28;20046;-78
2022/07/26 00:42:52;;;;;;;16.20;3.17;;;;;;;-145.18;100.00;46660.41;4990328;28;20038;-78
2022/07/26 00:45:18;;;;;;;20.80;3.47;;;;;;;-145.18;100.00;46660.41;4990444;28;20034;-78
2022/07/26 00:47:44;;;;;;;19.20;3.30;;;;;;;-145.18;100.00;46660.41;4972755;28;20033;-77
2022/07/26 00:50:12;;;;;;;20.33;3.57;;;;;;;-145.18;100.00;46660.41;4993489;28;20033;-78
2022/07/26 00:52:40;;;;;;;14.37;3.30;;;;;;;-145.18;100.00;46660.41;4993448;28;20046;-77
2022/07/26 00:55:06;;;;;;;17.30;3.87;;;;;;;-145.18;100.00;46660.41;4994391;28;20034;-78
2022/07/26 00:57:32;;;;;;;12.27;2.80;;;;;;;-145.18;100.00;46660.41;4994657;28;20035;-78
2022/07/26 00:59:59;;;;;;;14.43;4.07;;;;;;;-145.18;100.00;46660.41;4993675;28;20045;-77
2022/07/26 01:02:25;;;;;;;28.47;3.37;;;;;;;-145.18;100.00;46658.44;4992413;28;20398;-78
2022/07/26 01:04:50;;;;;;;18.90;4.10;;;;;;;-145.18;100.00;46658.44;4993485;28;20042;-77
2022/07/26 01:07:16;;;;;;;10.43;2.53;;;;;;;-145.18;100.00;46654.53;4993488;28;20034;-76
2022/07/26 01:09:42;;;;;;;14.07;3.10;;;;;;;-145.18;100.00;46654.53;4994072;28;20038;-76
2022/07/26 01:12:08;;;;;;;9.63;2.70;;;;;;;-145.18;100.00;46654.53;4993525;28;20037;-76
2022/07/26 01:14:33;;;;;;;8.20;2.80;;;;;;;-145.18;100.00;46654.53;4993450;28;20034;-76
2022/07/26 01:16:58;;;;;;;5.57;2.20;;;;;;;-145.18;100.00;46652.59;4993418;28;20065;-75
2022/07/26 01:19:24;;;;;;;11.17;2.40;;;;;;;-145.18;100.00;46658.44;4993448;28;20034;-76
2022/07/26 01:21:50;;;;;;;11.97;2.20;;;;;;;-145.18;100.00;46656.50;4992640;28;20088;-75
2022/07/26 01:24:16;;;;;;;9.23;2.60;;;;;;;-145.18;100.00;46654.53;4993484;28;20034;-76
2022/07/26 01:26:42;;;;;;;7.60;2.73;;;;;;;-145.18;100.00;46654.53;4993024;28;20479;-76
2022/07/26 01:29:07;;;;;;;8.30;2.30;;;;;;;-145.18;100.00;46658.44;4993535;28;20042;-76
2022/07/26 01:31:33;;;;;;;10.00;2.60;;;;;;;-145.18;100.00;46660.41;4993062;28;20057;-76
2022/07/26 01:33:58;;;;;;;8.60;2.73;;;;;;;-145.18;100.00;46654.53;4993708;28;20042;-76
2022/07/26 01:36:24;;;;;;;9.73;3.63;;;;;;;-145.18;100.00;46658.44;4992959;28;20433;-76
2022/07/26 01:38:49;;;;;;;7.87;2.70;;;;;;;-145.18;100.00;46656.50;4993282;28;20030;-76
2022/07/26 01:41:15;;;;;;;10.63;2.63;;;;;;;-145.18;100.00;46654.53;4993079;28;20117;-76
2022/07/26 01:43:41;;;;;;;8.40;2.50;;;;;;;-145.18;100.00;46654.53;4992892;28;20042;-75
2022/07/26 01:46:07;;;;;;;9.93;2.57;;;;;;;-145.18;100.00;46660.41;4993409;28;20582;-76
2022/07/26 01:48:32;;;;;;;10.93;2.63;;;;;;;-145.18;100.00;46654.53;4992490;28;20113;-75
2022/07/26 01:50:58;;;;;;;10.37;2.77;;;;;;;-145.18;100.00;46656.50;4993344;28;20463;-75
2022/07/26 01:53:23;;;;;;;12.50;2.90;;;;;;;-145.18;100.00;46656.50;4992548;28;20041;-75
2022/07/26 01:55:49;;;;;;;9.57;3.00;;;;;;;-145.18;100.00;46656.50;4993079;28;20031;-75
2022/07/26 01:58:14;;;;;;;6.13;2.77;;;;;;;-145.18;100.00;46656.50;4992759;28;20744;-75
2022/07/26 02:03:18;;;;;;;8.70;3.20;;;;;;;-145.18;100.00;46652.59;5073802;23;20419;-74
2022/07/26 02:05:43;;;;;;;8.53;3.50;;;;;;;-145.18;100.00;46650.63;4974402;28;20051;-73
2022/07/26 02:08:09;;;;;;;5.37;2.37;;;;;;;-145.18;100.00;46652.59;4955325;28;20110;-74
2022/07/26 02:13:19;;;;;;;7.97;3.30;;;;;;;-145.18;100.00;46650.63;4973393;28;20094;-74
2022/07/26 02:15:44;;;;;;;7.77;3.10;;;;;;;-145.18;100.00;46654.53;4973014;28;20039;-74
2022/07/26 02:18:10;;;;;;;9.33;2.50;;;;;;;-145.18;100.00;46650.63;4972709;28;20034;-75
2022/07/26 02:20:35;;;;;;;7.13;2.60;;;;;;;-145.18;100.00;46652.59;4973384;28;20058;-74
2022/07/26 02:23:02;;;;;;;6.80;2.87;;;;;;;-145.18;100.00;46642.81;4972390;28;20111;-74
2022/07/26 02:25:27;;;;;;;7.80;2.90;;;;;;;-145.18;100.00;46642.81;4973220;28;20026;-74
2022/07/26 02:27:53;;;;;;;7.27;2.93;;;;;;;-145.18;100.00;46642.81;4972534;28;20089;-74
2022/07/26 02:30:18;;;;;;;8.40;3.13;;;;;;;-145.18;100.00;46642.81;4972949;28;20483;-74
2022/07/26 02:32:44;;;;;;;9.00;3.20;;;;;;;-145.18;100.00;46642.81;4972558;28;20106;-74
2022/07/26 02:35:10;;;;;;;10.60;3.27;;;;;;;-145.18;100.00;46644.78;4972650;28;20500;-73
2022/07/26 02:37:36;;;;;;;10.23;2.70;;;;;;;-145.18;100.00;46652.59;4972260;28;20035;-73
2022/07/26 02:40:03;;;;;;;6.63;2.60;;;;;;;-145.18;100.00;46656.50;4972385;28;20065;-74
2022/07/26 02:42:28;;;;;;;11.43;3.00;;;;;;;-145.18;100.00;46656.50;4971501;28;20030;-74
2022/07/26 02:44:54;;;;;;;9.97;2.63;;;;;;;-145.18;100.00;46654.53;4981327;28;20034;-74
2022/07/26 02:47:19;;;;;;;5.47;2.63;;;;;;;-145.18;100.00;46654.53;4991863;28;20038;-74
2022/07/26 02:49:45;;;;;;;11.87;3.23;;;;;;;-145.18;100.00;46654.53;4991369;28;20034;-74
2022/07/26 02:52:10;;;;;;;12.90;2.90;;;;;;;-145.18;100.00;46656.50;4991213;28;20026;-73
2022/07/26 02:54:35;;;;;;;9.93;3.40;;;;;;;-145.18;100.00;46658.44;4992066;28;20038;-74
2022/07/26 02:57:01;;;;;;;6.73;2.90;;;;;;;-145.18;100.00;46658.44;4991074;28;20403;-74
2022/07/26 02:59:26;;;;;;;7.70;3.63;;;;;;;-145.18;100.00;46658.44;4991822;28;20058;-75
2022/07/26 03:01:51;;;;;;;6.23;2.87;;;;;;;-145.18;100.00;46660.41;4996579;28;20030;-74
2022/07/26 03:04:17;;;;;;;9.90;3.50;;;;;;;-145.18;100.00;46652.59;5011760;28;20065;-75
2022/07/26 03:06:42;;;;;;;7.27;3.27;;;;;;;-145.18;100.00;46656.50;5011301;28;20084;-75
2022/07/26 03:09:08;;;;;;;8.10;3.30;;;;;;;-145.18;100.00;46656.50;5010376;28;20037;-75
2022/07/26 03:11:33;;;;;;;5.33;2.60;;;;;;;-145.18;100.00;46656.50;5011387;28;20244;-75
2022/07/26 03:13:58;;;;;;;8.10;2.90;;;;;;;-145.18;100.00;46660.41;5010101;28;20034;-75
2022/07/26 03:16:24;;;;;;;6.63;2.90;;;;;;;-145.18;100.00;46656.50;5011457;28;20147;-75
2022/07/26 03:18:49;;;;;;;7.87;3.00;;;;;;;-145.18;100.00;46656.50;4993162;28;20041;-75
2022/07/26 03:21:14;;;;;;;13.90;3.73;;;;;;;-145.18;100.00;46656.50;5011054;28;20041;-75
2022/07/26 03:23:40;;;;;;;12.53;2.93;;;;;;;-145.18;100.00;46660.41;5010705;28;20041;-74
2022/07/26 03:26:05;;;;;;;9.23;2.90;;;;;;;-145.18;100.00;46656.50;5011128;28;20044;-76
2022/07/26 03:28:32;;;;;;;8.43;2.80;;;;;;;-145.18;100.00;46660.41;5010530;28;20034;-75
2022/07/26 03:30:58;;;;;;;9.43;3.37;;;;;;;-145.18;100.00;46652.59;5010803;28;20549;-74
2022/07/26 03:33:24;;;;;;;8.97;2.90;;;;;;;-145.18;100.00;46660.41;4992860;28;20120;-75
2022/07/26 03:35:49;;;;;;;6.43;2.50;;;;;;;-145.18;100.00;46660.41;5010784;28;20121;-75
2022/07/26 03:38:14;;;;;;;9.70;3.00;;;;;;;-145.18;100.00;46658.44;5010691;28;20066;-75
2022/07/26 03:40:40;;;;;;;8.57;3.03;;;;;;;-145.18;100.00;46660.41;5009949;28;20104;-75
2022/07/26 03:43:05;;;;;;;9.00;2.93;;;;;;;-145.18;100.00;46660.41;5009680;28;20046;-75
2022/07/26 03:45:30;;;;;;;12.63;3.60;;;;;;;-145.18;100.00;46660.41;5010140;28;20037;-75
2022/07/26 03:47:56;;;;;;;13.20;3.30;;;;;;;-145.18;100.00;46660.41;5010168;28;20391;-74
2022/07/26 03:50:21;;;;;;;13.07;3.70;;;;;;;-145.18;100.00;46660.41;4992352;28;20034;-75
2022/07/26 03:52:46;;;;;;;13.97;3.43;;;;;;;-145.18;100.00;46654.53;5010252;28;20044;-74
2022/07/26 03:57:56;;;;;;;10.83;3.50;;;;;;;-145.18;100.00;46656.50;5010586;28;20065;-75
2022/07/26 04:00:21;;;;;;;13.90;3.03;;;;;;;-145.18;100.00;46656.50;5011059;28;20482;-74
2022/07/26 04:02:47;;;;;;;13.37;3.13;;;;;;;-145.18;100.00;46660.41;5017898;28;20077;-75
2022/07/26 04:05:12;;;;;;;14.57;3.23;;;;;;;-145.18;100.00;46656.50;5030374;28;20038;-76
2022/07/26 04:07:42;;;;;;;12.33;3.57;;;;;;;-145.18;100.00;46652.59;5010823;28;20038;-75
2022/07/26 04:10:08;;;;;;;8.20;2.80;;;;;;;-145.18;100.00;46656.50;5010698;28;20140;-76
2022/07/26 04:12:33;;;;;;;7.77;3.23;;;;;;;-145.18;100.00;46654.53;5010337;28;20033;-77
2022/07/26 04:14:59;;;;;;;8.27;3.50;;;;;;;-145.18;100.00;46656.50;5010099;28;20061;-76
2022/07/26 04:17:24;;;;;;;9.50;3.37;;;;;;;-145.18;100.00;46652.59;5009186;28;20037;-76
2022/07/26 04:19:50;;;;;;;10.27;3.67;;;;;;;-145.18;100.00;46650.63;5009603;28;20026;-76
2022/07/26 04:22:15;;;;;;;9.27;3.40;;;;;;;-145.18;100.00;46656.50;5009032;28;20038;-75
2022/07/26 04:24:40;;;;;;;8.83;3.27;;;;;;;-145.18;100.00;46640.88;5011787;28;20040;-77
2022/07/26 04:27:06;;;;;;;8.90;3.43;;;;;;;-145.18;100.00;46656.50;5014045;28;20034;-76
2022/07/26 04:29:31;;;;;;;10.27;3.17;;;;;;;-145.18;100.00;46642.81;5014405;28;20486;-76
2022/07/26 04:31:56;;;;;;;11.70;3.57;;;;;;;-145.18;100.00;46652.59;5014216;28;20099;-76
2022/07/26 04:34:22;;;;;;;8.13;2.80;;;;;;;-145.18;100.00;46642.81;5013738;28;20119;-76
2022/07/26 04:36:47;;;;;;;8.20;3.40;;;;;;;-145.18;100.00;46640.88;5014584;28;20089;-76
2022/07/26 04:39:12;;;;;;;10.27;3.30;;;;;;;-145.18;100.00;46642.81;5013461;28;20093;-76
2022/07/26 04:41:37;;;;;;;12.57;4.37;;;;;;;-145.18;100.00;46640.88;4996678;28;20038;-75
2022/07/26 04:44:03;;;;;;;5.83;3.20;;;;;;;-145.18;100.00;46652.59;5013764;28;20033;-76
2022/07/26 04:46:28;;;;;;;16.07;3.97;;;;;;;-145.18;100.00;46638.91;5013849;28;20029;-75
2022/07/26 04:48:54;;;;;;;8.97;3.43;;;;;;;-145.18;100.00;46642.81;5013556;28;20033;-75
2022/07/26 04:51:19;;;;;;;15.47;3.40;;;;;;;-145.18;100.00;46652.59;5014175;28;20474;-76
2022/07/26 04:53:45;;;;;;;9.73;2.87;;;;;;;-145.18;100.00;46642.81;5025602;28;20073;-76
2022/07/26 04:56:10;;;;;;;8.20;3.03;;;;;;;-145.18;100.00;46642.81;5016693;28;20042;-75
2022/07/26 04:58:35;;;;;;;13.73;3.00;;;;;;;-145.18;100.00;46636.94;5014044;28;20062;-76
2022/07/26 05:01:01;;;;;;;4.60;2.50;;;;;;;-145.18;100.00;46642.81;5013699;28;20037;-76
2022/07/26 05:03:26;;;;;;;7.90;2.80;;;;;;;-145.18;100.00;46650.63;5009345;28;20523;-76
2022/07/26 05:05:52;;;;;;;9.87;2.93;;;;;;;-145.18;100.00;46640.88;5033528;28;20449;-77
2022/07/26 05:08:18;;;;;;;8.67;3.30;;;;;;;-145.18;100.00;46640.88;5033072;28;20034;-76
2022/07/26 05:10:43;;;;;;;10.03;3.10;;;;;;;-145.18;100.00;46642.81;5033184;28;20044;-76
2022/07/26 05:13:09;;;;;;;7.73;2.87;;;;;;;-145.18;100.00;46640.88;5032105;28;20044;-76
2022/07/26 05:15:35;;;;;;;11.20;3.17;;;;;;;-145.18;100.00;46640.88;5033221;28;20424;-76
2022/07/26 05:18:04;;;;;;;10.03;3.07;;;;;;;-145.18;100.00;46652.59;5033167;28;20071;-75
2022/07/26 05:20:29;;;;;;;12.67;3.43;;;;;;;-145.18;100.00;46650.63;5033388;28;20082;-76
2022/07/26 05:22:56;;;;;;;10.67;3.10;;;;;;;-145.18;100.00;46642.81;5034528;28;20025;-77
2022/07/26 05:25:21;;;;;;;7.80;2.57;;;;;;;-145.18;100.00;46652.59;5035599;28;20397;-76
2022/07/26 05:27:46;;;;;;;7.33;3.00;;;;;;;-145.18;100.00;46656.50;5032886;28;20025;-76
2022/07/26 05:30:12;;;;;;;11.00;3.30;;;;;;;-145.18;100.00;46654.53;5028236;28;20038;-76
2022/07/26 05:32:37;;;;;;;13.70;4.00;;;;;;;-145.18;100.00;46654.53;5032415;28;20033;-76
2022/07/26 05:35:05;;;;;;;10.33;3.00;;;;;;;-145.18;100.00;46660.41;5030801;28;20171;-77
2022/07/26 05:37:30;;;;;;;11.30;2.87;;;;;;;-145.18;100.00;46656.50;5032176;28;20128;-77
2022/07/26 05:39:55;;;;;;;8.37;2.80;;;;;;;-145.18;100.00;46656.50;5032909;28;20156;-77
2022/07/26 05:42:21;;;;;;;10.53;3.20;;;;;;;-145.18;100.00;46656.50;5029377;28;20033;-78
2022/07/26 05:44:46;;;;;;;13.90;3.50;;;;;;;-145.18;100.00;46656.50;5032042;28;20092;-77
2022/07/26 05:47:11;;;;;;;17.13;4.13;;;;;;;-145.18;100.00;46660.41;5032281;28;20505;-77
2022/07/26 05:49:37;;;;;;;10.87;3.43;;;;;;;-145.18;100.00;46658.44;5034253;28;20040;-77
2022/07/26 05:52:03;;;;;;;14.13;3.33;;;;;;;-145.18;100.00;46660.41;5051974;28;20051;-77
2022/07/26 05:54:28;;;;;;;15.67;3.43;;;;;;;-145.18;100.00;46660.41;5051310;28;20481;-77
2022/07/26 05:56:53;;;;;;;9.97;3.80;;;;;;;-145.18;100.00;46621.31;5052341;28;20112;-77
2022/07/26 05:59:18;;;;;;;11.13;3.10;;;;;;;-145.18;100.00;46660.41;5052252;28;20074;-77
2022/07/26 06:01:44;;;;;;;11.07;3.83;;;;;;;-145.18;100.00;46619.38;5052413;28;20033;-77
2022/07/26 06:04:09;;;;;;;12.87;3.90;;;;;;;-145.18;100.00;46621.31;5051631;28;20053;-78
2022/07/26 06:06:35;;;;;;;10.00;4.03;;;;;;;-145.18;100.00;46621.31;5052445;28;20500;-76
2022/07/26 06:09:00;;;;;;;14.97;3.70;;;;;;;-145.18;100.00;46623.28;5051971;28;20037;-76
2022/07/26 06:11:25;;;;;;;10.43;3.80;;;;;;;-145.18;100.00;46617.41;5052141;28;20032;-77
2022/07/26 06:13:51;;;;;;;14.87;4.23;;;;;;;-145.18;100.00;46621.31;5051650;28;20043;-77
2022/07/26 06:16:16;;;;;;;13.13;5.07;;;;;;;-145.18;100.00;46623.28;5034387;28;20031;-77
2022/07/26 06:18:42;;;;;;;5.83;3.20;;;;;;;-145.18;100.00;46625.22;5051698;28;20053;-78
2022/07/26 06:21:08;;;;;;;13.80;4.57;;;;;;;-145.18;100.00;46621.31;5051647;28;20396;-76
2022/07/26 06:23:33;;;;;;;6.33;2.00;;;;;;;-145.18;100.00;46621.31;5033770;28;20069;-76
2022/07/26 06:25:58;;;;;;;2.90;1.43;;;;;;;-145.18;100.00;46660.41;5052043;28;20477;-77
2022/07/26 06:28:24;;;;;;;5.93;1.97;;;;;;;-145.18;100.00;46621.31;5051565;28;20033;-77
2022/07/26 06:30:49;;;;;;;7.23;1.30;;;;;;;-145.18;100.00;46656.50;5051800;28;20448;-76
2022/07/26 06:33:14;;;;;;;4.60;1.27;;;;;;;-145.18;100.00;46654.53;5051267;28;20033;-77
2022/07/26 06:35:41;;;;;;;5.20;1.40;;;;;;;-145.18;100.00;46656.50;5051641;28;20049;-77
2022/07/26 06:38:07;;;;;;;3.37;1.00;;;;;;;-145.18;100.00;46654.53;5050981;28;20033;-77
2022/07/26 06:40:32;;;;;;;4.40;0.80;;;;;;;-145.18;100.00;46656.50;5051664;28;20115;-77
2022/07/26 06:42:59;;;;;;;4.10;0.80;;;;;;;-145.18;100.00;46656.50;5051077;28;20121;-77
2022/07/26 06:45:25;;;;;;;2.90;1.10;;;;;;;-145.18;100.00;46654.53;5051430;28;20119;-75
2022/07/26 06:47:50;;;;;;;3.43;1.40;;;;;;;-145.18;100.00;46650.63;5050910;28;20112;-77
2022/07/26 06:50:15;;;;;;;4.20;1.87;;;;;;;-145.18;100.00;46638.91;5051016;28;20068;-77
2022/07/26 06:52:41;;;;;;;4.60;1.90;;;;;;;-145.18;100.00;46638.91;5050877;28;20447;-77
2022/07/26 06:55:07;;;;;;;6.27;2.27;;;;;;;-145.18;100.00;46597.88;5050954;28;20108;-78
2022/07/26 06:57:34;;;;;;;3.73;1.47;;;;;;;-145.18;100.00;46595.94;5051350;28;20029;-75
2022/07/26 06:59:59;;;;;;;5.33;1.70;;;;;;;-145.18;100.00;46595.94;5050865;28;20032;-77
2022/07/26 07:02:25;;;;;;;6.90;2.00;;;;;;;-145.18;100.00;46595.94;5050737;28;20132;-75
2022/07/26 07:04:50;;;;;;;6.73;2.90;;;;;;;-145.18;100.00;46593.97;5050251;28;20574;-75
2022/07/26 07:07:16;;;;;;;5.10;1.83;;;;;;;-145.18;100.00;46593.97;5050918;28;20037;-76
2022/07/26 07:09:41;;;;;;;9.03;2.03;;;;;;;-145.18;100.00;46588.13;5050512;28;20032;-76
2022/07/26 07:12:07;;;;;;;11.17;2.97;;;;;;;-145.18;100.00;46592.03;5050777;28;20052;-77
2022/07/26 07:14:33;;;;;;;10.83;2.67;;;;;;;-145.18;100.00;46588.13;5050338;28;20025;-77
2022/07/26 07:16:58;;;;;;;7.60;2.50;;;;;;;-145.18;100.00;46586.16;5050612;28;20029;-77
2022/07/26 07:19:24;;;;;;;9.90;2.10;;;;;;;-145.18;100.00;46588.13;5050487;28;20549;-79
2022/07/26 07:21:50;;;;;;;6.47;2.00;;;;;;;-145.18;100.00;46590.06;5050975;28;20037;-79
2022/07/26 07:24:16;;;;;;;7.73;1.77;;;;;;;-145.18;100.00;46584.22;5032714;28;20040;-79
2022/07/26 07:26:42;;;;;;;8.27;2.13;;;;;;;-145.18;100.00;46584.22;5050674;28;20072;-78
2022/07/26 07:29:11;;;;;;;6.90;2.50;;;;;;;-145.18;100.00;46590.06;5050292;28;20429;-79
2022/07/26 07:31:37;;;;;;;7.43;2.10;;;;;;;-145.18;100.00;46582.25;5050905;28;20025;-79
2022/07/26 07:34:03;;;;;;;9.53;2.83;;;;;;;-145.18;100.00;46592.03;5050265;28;20036;-79
2022/07/26 07:36:29;;;;;;;12.07;3.43;;;;;;;-145.18;100.00;46584.22;5050668;28;20036;-79
2022/07/26 07:38:54;;;;;;;8.77;2.90;;;;;;;-145.18;100.00;46584.22;5032380;28;20037;-79
2022/07/26 07:41:19;;;;;;;11.70;4.07;;;;;;;-145.18;100.00;46584.22;5050637;28;20135;-79
2022/07/26 07:43:45;;;;;;;13.97;3.80;;;;;;;-145.18;100.00;46586.16;5050559;28;20531;-80
2022/07/26 07:46:11;;;;;;;7.27;2.43;;;;;;;-145.18;100.00;46582.25;5050528;28;20029;-79
2022/07/26 07:48:39;;;;;;;9.23;3.33;;;;;;;-145.18;100.00;46588.13;5050335;28;20155;-80
2022/07/26 07:51:07;;;;;;;10.30;3.17;;;;;;;-145.18;100.00;46584.22;5050131;28;20067;-78
2022/07/26 07:53:33;;;;;;;9.40;3.83;;;;;;;-145.18;100.00;46582.25;5050117;28;20064;-79
2022/07/26 07:55:59;;;;;;;11.87;2.93;;;;;;;-145.18;100.00;46592.03;5050177;28;20501;-78
2022/07/26 07:58:25;;;;;;;9.67;3.10;;;;;;;-145.18;100.00;46590.06;5049561;28;20037;-78
2022/07/26 08:00:50;;;;;;;13.93;4.47;;;;;;;-145.18;100.00;46592.03;5050653;28;20029;-79
2022/07/26 08:03:16;;;;;;;10.53;3.03;;;;;;;-145.18;100.00;46590.06;5049545;28;20301;-79
2022/07/26 08:05:41;;;;;;;9.67;3.47;;;;;;;-145.18;100.00;46592.03;5050546;28;20444;-79
2022/07/26 08:08:07;;;;;;;11.80;4.47;;;;;;;-145.18;100.00;46592.03;5049796;28;20044;-79
2022/07/26 08:10:32;;;;;;;8.43;3.10;;;;;;;-145.18;100.00;46592.03;5050333;28;20029;-79
2022/07/26 08:12:58;;;;;;;10.00;2.80;;;;;;;-145.18;100.00;46590.06;5031943;28;20036;-79
2022/07/26 08:15:23;;;;;;;6.10;1.30;;;;;;;-145.18;100.00;46597.88;5050076;28;20044;-79
2022/07/26 08:17:49;;;;;;;5.47;1.30;;;;;;;-145.18;100.00;46601.78;5032400;28;20116;-81
2022/07/26 08:20:15;;;;;;;9.43;1.50;;;;;;;-145.18;100.00;46597.88;5050087;28;20029;-80
2022/07/26 08:22:40;;;;;;;7.23;1.17;;;;;;;-145.18;100.00;46607.66;5050287;28;20029;-79
2022/07/26 08:25:06;;;;;;;6.50;1.70;;;;;;;-145.18;100.00;46609.59;5049492;28;20041;-80
2022/07/26 08:27:32;;;;;;;5.87;1.37;;;;;;;-145.18;100.00;46609.59;5050016;28;20040;-79
2022/07/26 08:29:57;;;;;;;7.07;1.63;;;;;;;-145.18;100.00;46613.50;5049490;28;20033;-79
2022/07/26 08:32:22;;;;;;;5.13;1.97;;;;;;;-145.18;100.00;46615.47;5050061;28;20044;-79
2022/07/26 08:34:48;;;;;;;5.27;1.60;;;;;;;-145.18;100.00;46617.41;5049935;28;20037;-80
2022/07/26 08:37:13;;;;;;;8.90;2.47;;;;;;;-145.18;100.00;46623.28;5049809;28;20100;-79
2022/07/26 08:39:38;;;;;;;7.57;1.97;;;;;;;-145.18;100.00;46623.28;5049597;28;20051;-79
2022/07/26 08:42:15;;;;;;;5.43;2.10;;;;;;;-145.18;100.00;46623.28;5049687;28;20064;-79
2022/07/26 08:44:43;;;;;;;8.17;2.37;;;;;;;-145.18;100.00;46627.19;5049763;28;20025;-80
2022/07/26 08:47:19;;;;;;;3.93;1.80;;;;;;;-145.18;100.00;46627.19;5049645;28;20040;-78
2022/07/26 08:49:45;;;;;;;6.23;1.57;;;;;;;-145.18;100.00;46633.06;5049688;28;20029;-80
2022/07/26 08:52:12;;;;;;;4.60;1.70;;;;;;;-145.18;100.00;46633.06;5049768;28;20033;-78
2022/07/26 08:54:44;;;;;;;6.60;1.90;;;;;;;-145.18;100.00;46636.94;5049579;28;20057;-80
2022/07/26 08:57:10;;;;;;;6.03;1.37;;;;;;;-145.18;100.00;46633.06;5049643;28;20036;-79
2022/07/26 08:59:35;;;;;;;3.83;1.00;;;;;;;-145.18;100.00;46636.94;5049379;28;20024;-80
2022/07/26 09:02:07;;;;;;;5.67;1.30;;;;;;;-145.18;100.00;46642.81;5047600;28;20161;-80
2022/07/26 09:04:34;;;;;;;6.50;1.40;;;;;;;-145.18;100.00;46648.69;5029230;28;20033;-79
2022/07/26 09:07:04;;;;;;;3.83;1.37;;;;;;;-145.18;100.00;46646.72;5029675;28;20026;-80
2022/07/26 09:09:32;;;;;;;10.50;1.67;;;;;;;-145.18;100.00;46644.78;5029499;28;20459;-79
2022/07/26 09:11:58;;;;;;;8.53;1.63;;;;;;;-145.18;100.00;46640.88;5032012;28;20433;-80
2022/07/26 09:14:35;;;;;;;8.07;1.40;;;;;;;-145.18;100.00;46638.91;5032968;28;20037;-78
2022/07/26 09:17:01;;;;;;;5.10;1.30;;;;;;;-145.18;100.00;46644.78;5032724;28;20417;-79
2022/07/26 09:19:27;;;;;;;4.67;1.27;;;;;;;-145.18;100.00;46638.91;5033060;28;20092;-78
2022/07/26 09:21:54;;;;;;;2.57;1.37;;;;;;;-145.18;100.00;46633.06;5033698;28;20048;-79
2022/07/26 09:24:51;;;;;;;3.80;0.90;;;;;;;-145.18;100.00;46629.13;5032864;28;20041;-77
2022/07/26 09:27:17;;;;;;;4.10;1.07;;;;;;;-145.18;100.00;46627.19;4988609;28;20095;-78
2022/07/26 09:29:49;;;;;;;8.13;0.93;;;;;;;-145.18;100.00;46621.31;5031223;28;20034;-77
2022/07/26 09:32:20;;;;;;;5.70;1.00;;;;;;;-145.18;100.00;46623.28;5032802;28;20087;-78
2022/07/26 09:34:50;;;;;;;5.03;1.00;;;;;;;-145.18;100.00;46623.28;5032230;28;20037;-78
2022/07/26 09:37:16;;;;;;;9.57;1.10;;;;;;;-145.18;100.00;46625.22;5032811;28;20060;-78
2022/07/26 09:39:59;;;;;;;4.23;0.90;;;;;;;-145.18;100.00;46631.09;5032508;28;20038;-78
2022/07/26 09:42:26;;;;;;;7.83;1.33;;;;;;;-145.18;100.00;46633.06;5033071;28;20096;-78
2022/07/26 09:44:53;;;;;;;9.10;1.20;;;;;;;-145.18;100.00;46627.19;5032199;28;20071;-78
2022/07/26 09:47:18;;;;;;;5.77;1.43;;;;;;;-145.18;100.00;46633.06;5032692;28;20030;-80
2022/07/26 09:49:44;;;;;;;4.67;1.47;;;;;;;-145.18;100.00;46633.06;5032419;28;20180;-78
2022/07/26 09:52:18;;;;;;;7.47;1.83;;;;;;;-145.18;100.00;46635.00;5032396;28;20061;-78
2022/07/26 09:54:46;;;;;;;4.27;1.50;;;;;;;-145.18;100.00;46640.88;5032366;28;20484;-79
2022/07/26 09:57:16;;;;;;;7.97;1.30;;;;;;;-145.18;100.00;46640.88;5032142;28;20080;-77
2022/07/26 09:59:41;;;;;;;5.03;1.40;;;;;;;-145.18;100.00;46640.88;5032524;28;20029;-79
2022/07/26 10:02:07;;;;;;;8.20;1.50;;;;;;;-145.18;100.00;46636.94;5031846;28;20100;-77
2022/07/26 10:04:32;;;;;;;3.80;1.30;;;;;;;-145.18;100.00;46646.72;5032157;28;20044;-78
2022/07/26 10:06:58;;;;;;;10.17;1.30;;;;;;;-145.18;100.00;46642.81;5032252;28;20034;-78
2022/07/26 10:09:24;;;;;;;6.93;1.27;;;;;;;-145.18;100.00;46646.72;5032137;28;20076;-80
2022/07/26 10:11:55;;;;;;;6.10;1.47;;;;;;;-145.18;100.00;46638.91;5032104;28;20037;-79
2022/07/26 10:14:37;;;;;;;5.83;1.73;;;;;;;-145.18;100.00;46640.88;5031710;28;20029;-80
2022/07/26 10:17:24;;;;;;;4.13;1.33;;;;;;;-145.18;100.00;46648.69;5031976;28;20037;-79
2022/07/26 10:19:50;;;;;;;4.23;1.23;;;;;;;-145.18;100.00;46646.72;5031601;28;20096;-80
2022/07/26 10:22:21;;;;;;;9.10;1.20;;;;;;;-145.18;100.00;46650.63;5031333;28;20045;-79
2022/07/26 10:24:47;;;;;;;5.70;1.20;;;;;;;-145.18;100.00;46650.63;5031427;28;20064;-79
2022/07/26 10:27:54;;;;;;;6.33;1.20;;;;;;;-145.18;100.00;46650.63;5031759;28;20442;-78
2022/07/26 10:30:25;;;;;;;3.60;1.03;;;;;;;-145.18;100.00;46654.53;4992912;28;20059;-79
2022/07/26 10:32:51;;;;;;;4.00;0.90;;;;;;;-145.18;100.00;46656.50;5031685;28;20037;-79
2022/07/26 10:35:31;;;;;;;4.83;1.00;;;;;;;-145.18;100.00;46652.59;5031149;28;20417;-79
2022/07/26 10:38:04;;;;;;;3.93;1.00;;;;;;;-145.18;100.00;46652.59;5031901;28;20112;-79
2022/07/26 10:40:30;;;;;;;5.37;1.00;;;;;;;-145.18;100.00;46650.63;5031518;28;20129;-79
2022/07/26 10:43:15;;;;;;;5.07;1.87;;;;;;;-145.18;100.00;46658.44;5031498;28;20053;-79
2022/07/26 10:45:41;;;;;;;3.35;1.10;;;;;;;-145.18;100.00;46656.50;5031315;28;20029;-78
2022/07/26 10:48:19;;;;;;;3.60;0.83;;;;;;;-145.18;100.00;46654.53;5031226;28;20176;-78
2022/07/26 10:50:51;;;;;;;4.80;1.10;;;;;;;-145.18;100.00;46656.50;5031096;28;20404;-79
2022/07/26 10:53:20;;;;;;;3.93;1.30;;;;;;;-145.18;100.00;46650.63;5031629;28;20059;-78
2022/07/26 10:55:48;;;;;;;5.20;1.20;;;;;;;-145.18;100.00;46654.53;5031555;28;20446;-78
2022/07/26 10:58:14;;;;;;;9.03;2.03;;;;;;;-145.18;100.00;46654.53;5031220;28;20029;-79
2022/07/26 11:00:39;;;;;;;4.07;1.20;;;;;;;-145.18;100.00;46664.31;5030966;28;20037;-78
2022/07/26 11:03:05;;;;;;;3.23;1.17;;;;;;;-145.18;100.00;46656.50;5031102;28;20522;-78
2022/07/26 11:05:33;;;;;;;5.87;1.27;;;;;;;-145.18;100.00;46660.41;5031184;28;20036;-78
2022/07/26 11:08:07;;;;;;;8.17;1.57;;;;;;;-145.18;100.00;46664.31;5031632;28;20026;-79
2022/07/26 11:10:36;;;;;;;5.97;1.30;;;;;;;-145.18;100.00;46664.31;5030827;28;20029;-79
2022/07/26 11:13:04;;;;;;;8.13;1.30;;;;;;;-145.18;100.00;46664.31;5030825;28;20096;-78